createdAt,value
2018-02-13T00:02:07.984Z,11.63
2018-02-13T00:04:35.929Z,9.77
2018-02-13T00:07:03.517Z,9.07
2018-02-13T00:09:31.566Z,13.30
2018-02-13T00:11:59.131Z,8.20
2018-02-13T00:14:27.097Z,11.12
2018-02-13T00:16:54.643Z,10.10
2018-02-13T00:19:29.146Z,9.70
2018-02-13T00:21:57.126Z,13.40
2018-02-13T00:24:25.447Z,9.70
2018-02-13T00:26:53.900Z,8.80
2018-02-13T00:29:24.364Z,13.90
2018-02-13T00:31:51.925Z,16.87
2018-02-13T00:34:23.089Z,8.80
2018-02-13T00:37:01.432Z,11.57
2018-02-13T00:39:29.030Z,14.70
2018-02-13T00:41:56.620Z,7.97
2018-02-13T00:44:24.167Z,9.60
2018-02-13T00:46:52.650Z,11.48
2018-02-13T00:49:20.212Z,8.30
2018-02-13T00:51:47.774Z,9.13
2018-02-13T00:54:15.306Z,10.57
2018-02-13T00:56:42.895Z,12.07
2018-02-13T00:59:10.443Z,13.50
2018-02-13T01:01:39.905Z,12.47
2018-02-13T01:04:07.553Z,9.00
2018-02-13T01:06:35.122Z,15.23
2018-02-13T01:09:02.837Z,10.05
2018-02-13T01:11:30.393Z,8.73
2018-02-13T01:13:57.964Z,14.03
2018-02-13T01:16:26.907Z,11.37
2018-02-13T01:18:55.833Z,12.40
2018-02-13T01:21:23.612Z,11.93
2018-02-13T01:23:51.980Z,13.52
2018-02-13T01:26:19.668Z,13.93
2018-02-13T01:28:47.624Z,9.03
2018-02-13T01:31:18.741Z,10.97
2018-02-13T01:33:46.376Z,9.03
2018-02-13T01:36:13.918Z,11.20
2018-02-13T01:38:41.480Z,13.10
2018-02-13T01:41:09.012Z,11.67
2018-02-13T01:43:36.585Z,15.37
2018-02-13T01:46:04.538Z,15.50
2018-02-13T01:48:33.768Z,13.63
2018-02-13T01:51:01.378Z,10.20
2018-02-13T01:53:29.058Z,10.53
2018-02-13T01:55:56.605Z,12.23
2018-02-13T01:58:24.244Z,12.00
2018-02-13T02:00:51.971Z,8.20
2018-02-13T02:03:19.513Z,12.83
2018-02-13T02:05:47.438Z,12.20
2018-02-13T02:08:14.991Z,10.87
2018-02-13T02:10:42.577Z,7.60
2018-02-13T02:13:10.110Z,9.82
2018-02-13T02:15:37.761Z,15.30
2018-02-13T02:18:05.339Z,10.17
2018-02-13T02:20:32.883Z,20.93
2018-02-13T02:23:00.472Z,12.33
2018-02-13T02:25:28.059Z,13.30
2018-02-13T02:27:56.026Z,11.67
2018-02-13T02:30:28.383Z,12.47
2018-02-13T02:32:57.166Z,11.97
2018-02-13T02:35:31.175Z,9.13
2018-02-13T02:38:06.995Z,12.90
2018-02-13T02:40:34.533Z,12.02
2018-02-13T02:43:05.905Z,13.60
2018-02-13T02:45:33.456Z,9.40
2018-02-13T02:48:01.012Z,12.43
2018-02-13T02:50:28.933Z,11.10
2018-02-13T02:52:56.500Z,8.93
2018-02-13T02:55:24.037Z,11.77
2018-02-13T02:57:51.603Z,15.20
2018-02-13T03:00:19.150Z,29.48
2018-02-13T03:02:46.732Z,10.83
2018-02-13T03:05:14.269Z,22.93
2018-02-13T03:07:41.824Z,12.07
2018-02-13T03:10:09.418Z,13.73
2018-02-13T03:12:36.987Z,13.32
2018-02-13T03:15:04.928Z,16.97
2018-02-13T03:17:32.502Z,17.23
2018-02-13T03:20:00.458Z,14.43
2018-02-13T03:22:28.277Z,12.70
2018-02-13T03:24:55.793Z,18.13
2018-02-13T03:27:24.305Z,16.23
2018-02-13T03:29:51.940Z,13.43
2018-02-13T03:32:19.492Z,14.10
2018-02-13T03:34:47.037Z,10.80
2018-02-13T03:37:14.594Z,10.80
2018-02-13T03:39:42.151Z,13.53
2018-02-13T03:42:09.711Z,12.90
2018-02-13T03:44:37.272Z,15.20
2018-02-13T03:47:04.890Z,12.40
2018-02-13T03:49:33.725Z,18.53
2018-02-13T03:52:01.333Z,14.57
2018-02-13T03:54:28.875Z,25.60
2018-02-13T03:56:56.420Z,17.33
2018-02-13T03:59:24.375Z,15.40
2018-02-13T04:01:51.930Z,11.30
2018-02-13T04:04:19.487Z,16.67
2018-02-13T04:06:47.092Z,18.53
2018-02-13T04:09:14.649Z,19.80
2018-02-13T04:11:42.243Z,14.68
2018-02-13T04:14:09.830Z,22.13
2018-02-13T04:16:37.427Z,19.57
2018-02-13T04:19:04.971Z,16.80
2018-02-13T04:21:32.518Z,18.53
2018-02-13T04:24:00.065Z,20.27
2018-02-13T04:26:27.630Z,14.45
2018-02-13T04:28:55.221Z,20.70
2018-02-13T04:31:23.208Z,16.00
2018-02-13T04:33:50.757Z,15.80
2018-02-13T04:36:19.638Z,16.00
2018-02-13T04:38:47.597Z,15.50
2018-02-13T04:41:15.539Z,16.23
2018-02-13T04:43:43.105Z,21.40
2018-02-13T04:46:10.685Z,20.23
2018-02-13T04:48:38.245Z,18.77
2018-02-13T04:51:06.199Z,19.98
2018-02-13T04:53:33.744Z,20.10
2018-02-13T04:56:01.305Z,18.73
2018-02-13T04:58:28.836Z,17.20
2018-02-13T05:00:56.441Z,18.43
2018-02-13T05:03:23.983Z,21.55
2018-02-13T05:05:51.526Z,16.30
2018-02-13T05:08:19.071Z,18.33
2018-02-13T05:10:46.640Z,20.63
2018-02-13T05:13:14.198Z,20.40
2018-02-13T05:15:41.772Z,22.83
2018-02-13T05:18:09.336Z,21.10
2018-02-13T05:20:36.925Z,19.10
2018-02-13T05:23:04.873Z,19.43
2018-02-13T05:25:32.453Z,19.27
2018-02-13T05:28:00.014Z,21.47
2018-02-13T05:30:27.972Z,19.10
2018-02-13T05:32:55.542Z,18.70
2018-02-13T05:35:23.122Z,16.83
2018-02-13T05:37:50.694Z,15.70
2018-02-13T05:40:18.246Z,16.37
2018-02-13T05:42:46.217Z,20.48
2018-02-13T05:45:13.799Z,26.15
2018-02-13T05:47:41.358Z,25.53
2018-02-13T05:50:08.952Z,21.40
2018-02-13T05:52:36.455Z,40.67
2018-02-13T05:55:04.011Z,18.90
2018-02-13T05:57:31.554Z,29.43
2018-02-13T05:59:59.526Z,21.80
2018-02-13T06:02:27.893Z,26.27
2018-02-13T06:04:55.469Z,25.10
2018-02-13T06:07:23.500Z,23.97
2018-02-13T06:09:51.087Z,22.67
2018-02-13T06:12:18.639Z,26.50
2018-02-13T06:14:46.181Z,21.83
2018-02-13T06:17:14.035Z,20.35
2018-02-13T06:19:41.616Z,20.95
2018-02-13T06:22:09.275Z,24.40
2018-02-13T06:24:36.844Z,22.30
2018-02-13T06:27:04.532Z,23.43
2018-02-13T06:29:32.641Z,22.70
2018-02-13T06:32:00.387Z,19.60
2018-02-13T06:34:28.007Z,18.53
2018-02-13T06:36:55.500Z,20.97
2018-02-13T06:39:23.072Z,26.03
2018-02-13T06:41:50.761Z,25.17
2018-02-13T06:44:18.352Z,27.98
2018-02-13T06:46:46.132Z,21.73
2018-02-13T06:49:13.725Z,20.77
2018-02-13T06:51:41.298Z,23.97
2018-02-13T06:54:09.835Z,20.10
2018-02-13T06:56:37.958Z,23.60
2018-02-13T06:59:06.999Z,23.87
2018-02-13T07:01:34.970Z,26.37
2018-02-13T07:04:02.513Z,23.77
2018-02-13T07:06:30.501Z,20.17
2018-02-13T07:09:02.634Z,24.55
2018-02-13T07:11:30.667Z,20.03
2018-02-13T07:13:58.217Z,23.03
2018-02-13T07:16:25.796Z,25.52
2018-02-13T07:18:53.366Z,21.77
2018-02-13T07:21:20.926Z,22.20
2018-02-13T07:23:48.562Z,23.50
2018-02-13T07:26:16.118Z,25.50
2018-02-13T07:28:43.697Z,27.17
2018-02-13T07:31:11.263Z,26.17
2018-02-13T07:33:38.826Z,22.03
2018-02-13T07:36:06.409Z,33.13
2018-02-13T07:38:33.950Z,24.10
2018-02-13T07:41:01.546Z,23.10
2018-02-13T07:43:29.708Z,24.90
2018-02-13T07:45:57.321Z,28.40
2018-02-13T07:48:24.897Z,19.60
2018-02-13T07:53:56.154Z,29.30
2018-02-13T07:56:25.350Z,25.77
2018-02-13T07:58:52.977Z,20.13
2018-02-13T08:01:20.721Z,17.73
2018-02-13T08:03:48.317Z,23.30
2018-02-13T08:06:16.011Z,25.57
2018-02-13T08:08:43.990Z,26.08
2018-02-13T08:11:11.561Z,24.77
2018-02-13T08:13:39.180Z,22.27
2018-02-13T08:16:06.850Z,26.67
2018-02-13T08:18:34.451Z,25.73
2018-02-13T13:44:42.264Z,3.73
2018-02-13T13:47:09.882Z,2.13
2018-02-13T13:49:37.420Z,3.35
2018-02-13T13:52:04.999Z,3.30
2018-02-13T13:54:32.572Z,4.23
2018-02-13T13:57:01.678Z,2.13
2018-02-13T13:59:30.191Z,2.50
2018-02-13T14:01:57.732Z,4.10
2018-02-13T14:04:25.368Z,5.17
2018-02-13T14:06:52.912Z,6.60
2018-02-13T14:09:20.456Z,4.50
2018-02-13T14:11:48.052Z,4.20
2018-02-13T14:14:16.069Z,3.20
2018-02-13T14:16:43.611Z,3.30
2018-02-13T14:19:11.188Z,2.87
2018-02-13T14:21:41.360Z,4.50
2018-02-13T14:24:09.313Z,4.03
2018-02-13T14:26:36.974Z,2.43
2018-02-13T14:29:10.858Z,4.60
2018-02-13T14:31:53.372Z,3.40
2018-02-13T14:34:20.925Z,4.22
2018-02-13T14:36:48.487Z,4.40
2018-02-13T14:39:16.091Z,6.50
2018-02-13T14:41:44.080Z,3.43
2018-02-13T14:44:12.775Z,4.10
2018-02-13T14:46:40.823Z,3.00
2018-02-13T14:49:08.513Z,4.03
2018-02-13T14:51:36.172Z,4.20
2018-02-13T14:54:04.084Z,5.18
2018-02-13T14:56:32.161Z,5.60
2018-02-13T14:59:22.792Z,4.47
2018-02-13T15:07:47.755Z,3.83
2018-02-13T15:13:49.576Z,2.50
2018-02-13T15:16:19.563Z,2.13
2018-02-13T15:18:47.158Z,2.87
2018-02-13T15:21:21.070Z,3.60
2018-02-13T15:26:56.162Z,4.27
2018-02-13T15:29:43.821Z,2.70
2018-02-13T15:38:29.960Z,4.63
2018-02-13T15:41:04.591Z,3.70
2018-02-13T15:43:39.189Z,2.40
2018-02-13T15:46:17.863Z,2.80
2018-02-13T15:48:50.443Z,4.13
2018-02-13T15:51:32.630Z,4.43
2018-02-13T15:54:00.770Z,4.53
2018-02-13T15:56:29.570Z,8.07
2018-02-13T15:59:03.628Z,4.00
2018-02-13T16:01:37.959Z,6.87
2018-02-13T16:04:18.000Z,4.25
2018-02-13T16:43:04.361Z,7.13
2018-02-13T16:54:31.082Z,4.17
2018-02-13T16:57:04.911Z,6.78
2018-02-13T16:59:38.724Z,4.70
2018-02-13T17:11:18.386Z,8.70
2018-02-13T17:13:46.515Z,9.23
2018-02-13T17:16:21.877Z,9.73
2018-02-13T17:18:51.078Z,7.90
2018-02-13T17:21:19.145Z,9.37
2018-02-13T17:23:47.107Z,12.77
2018-02-13T17:26:15.147Z,6.93
2018-02-13T17:28:42.697Z,12.20
2018-02-13T17:31:10.264Z,8.83
2018-02-13T17:33:37.814Z,6.30
2018-02-13T17:36:05.397Z,9.43
2018-02-13T17:38:34.921Z,23.17
2018-02-13T17:41:02.852Z,21.67
2018-02-13T17:43:37.892Z,47.90
2018-02-13T17:46:05.416Z,16.83
2018-02-13T17:48:34.278Z,19.17
2018-02-13T17:51:01.898Z,33.37
2018-02-13T17:53:31.456Z,85.13
2018-02-13T17:56:00.172Z,35.07
2018-02-13T17:58:27.856Z,33.08
2018-02-13T18:00:56.644Z,19.50
2018-02-13T18:03:24.210Z,13.60
2018-02-13T18:05:52.744Z,11.85
2018-02-13T18:08:20.347Z,7.70
2018-02-13T18:10:48.276Z,6.90
2018-02-13T18:13:19.164Z,8.00
2018-02-13T18:15:48.919Z,8.77
2018-02-13T18:18:19.408Z,9.67
2018-02-13T18:20:47.066Z,7.77
2018-02-13T18:23:15.528Z,6.20
2018-02-13T18:25:43.117Z,8.67
2018-02-13T18:28:11.137Z,9.60
2018-02-13T18:30:38.832Z,8.65
2018-02-13T18:33:06.503Z,7.70
2018-02-13T18:35:47.401Z,8.67
2018-02-13T18:38:17.621Z,8.67
2018-02-13T18:40:46.654Z,11.80
2018-02-13T18:43:16.925Z,9.10
2018-02-13T18:45:45.930Z,8.82
2018-02-13T18:48:15.413Z,9.27
2018-02-13T18:50:44.533Z,9.30
2018-02-13T18:56:12.870Z,7.78
2018-02-13T18:58:54.432Z,9.50
2018-02-13T19:01:43.864Z,7.90
2018-02-13T19:04:21.437Z,10.80
2018-02-13T19:06:59.204Z,9.93
2018-02-13T19:09:32.925Z,10.47
2018-02-13T19:12:05.650Z,12.87
2018-02-13T19:17:22.545Z,16.43
2018-02-13T19:19:54.305Z,10.57
2018-02-13T19:22:32.625Z,10.37
2018-02-13T19:25:04.902Z,13.57
2018-02-13T19:27:36.522Z,9.53
2018-02-13T19:30:13.156Z,9.30
2018-02-13T19:32:43.558Z,8.48
2018-02-13T19:35:16.480Z,17.43
2018-02-13T19:37:49.323Z,14.65
2018-02-13T19:40:24.466Z,24.10
2018-02-13T19:46:01.759Z,13.17
2018-02-13T19:48:34.482Z,13.60
2018-02-13T19:51:11.006Z,14.10
2018-02-13T19:53:43.957Z,11.37
2018-02-13T19:56:12.445Z,12.93
2018-02-13T19:58:45.911Z,8.60
2018-02-13T20:07:20.549Z,13.93
2018-02-13T20:09:49.042Z,14.95
2018-02-13T20:12:17.076Z,14.85
2018-02-13T20:14:44.675Z,18.17
2018-02-13T20:17:13.606Z,21.07
2018-02-13T20:19:45.749Z,15.60
2018-02-13T20:22:21.749Z,13.00
2018-02-13T20:25:44.501Z,15.17
2018-02-13T20:34:25.583Z,9.32
2018-02-13T20:37:12.155Z,9.47
2018-02-13T20:42:20.224Z,11.20
2018-02-13T20:44:51.093Z,12.65
2018-02-13T20:47:24.896Z,11.15
2018-02-13T20:50:02.605Z,15.45
2018-02-13T20:52:38.790Z,10.80
2018-02-13T20:55:09.534Z,13.63
2018-02-13T20:57:37.142Z,10.03
2018-02-13T21:00:04.892Z,12.98
2018-02-13T21:02:33.183Z,21.27
2018-02-13T21:05:04.170Z,13.70
2018-02-13T21:07:32.080Z,16.20
2018-02-13T21:18:40.243Z,11.57
2018-02-13T21:24:06.998Z,9.17
2018-02-13T21:26:34.610Z,11.17
2018-02-13T21:29:02.310Z,11.87
2018-02-13T21:31:30.993Z,13.80
2018-02-13T21:33:58.945Z,11.53
2018-02-13T21:36:29.315Z,11.93
2018-02-13T21:39:00.788Z,13.55
2018-02-13T21:41:29.655Z,11.40
2018-02-13T21:43:59.094Z,12.70
2018-02-13T21:46:27.171Z,13.03
2018-02-13T21:51:30.586Z,11.80
2018-02-13T21:56:40.574Z,12.32
2018-02-13T21:59:10.959Z,14.60
2018-02-13T22:01:42.607Z,12.47
2018-02-13T22:04:10.292Z,12.10
2018-02-13T22:06:39.177Z,12.87
2018-02-13T22:09:06.837Z,13.90
2018-02-13T22:11:35.023Z,11.73
2018-02-13T22:14:03.024Z,16.05
2018-02-13T22:16:30.828Z,13.87
2018-02-13T22:18:59.122Z,18.20
2018-02-13T22:21:27.708Z,10.13
2018-02-13T22:23:55.305Z,11.80
2018-02-13T22:26:22.902Z,15.23
2018-02-13T22:28:50.442Z,15.50
2018-02-13T22:31:18.301Z,16.30
2018-02-13T22:33:46.742Z,16.37
2018-02-13T22:36:14.945Z,17.02
2018-02-13T22:38:43.211Z,15.38
2018-02-13T22:41:12.451Z,19.83
2018-02-13T22:43:41.091Z,16.40
2018-02-13T22:46:08.804Z,19.00
2018-02-13T22:48:36.741Z,17.40
2018-02-13T22:51:04.449Z,21.20
2018-02-13T22:53:32.881Z,18.65
2018-02-13T22:56:00.806Z,13.83
2018-02-13T22:58:30.602Z,21.47
2018-02-13T23:00:58.407Z,14.70
2018-02-13T23:03:26.595Z,18.90
2018-02-13T23:05:55.828Z,15.60
2018-02-13T23:08:23.773Z,19.30
2018-02-13T23:10:52.090Z,23.43
2018-02-13T23:13:20.546Z,22.62
2018-02-13T23:18:31.385Z,25.10
2018-02-13T23:21:02.864Z,24.37
2018-02-13T23:23:36.528Z,18.13
2018-02-13T23:26:09.040Z,18.03
2018-02-13T23:28:41.473Z,21.70
2018-02-13T23:31:12.153Z,23.37
2018-02-13T23:33:42.443Z,20.37
2018-02-13T23:36:12.727Z,26.50
2018-02-13T23:38:51.259Z,20.47
2018-02-13T23:41:20.218Z,21.53
2018-02-13T23:43:48.882Z,23.08
2018-02-13T23:46:17.005Z,20.57
2018-02-13T23:48:48.480Z,23.37
2018-02-13T23:51:17.774Z,22.90
2018-02-13T23:53:46.722Z,23.10
2018-02-13T23:56:15.296Z,19.30
2018-02-13T23:58:45.994Z,22.37
